Time;durP1;ratioP1;P1;durP2;ratioP2;P2;SDS_P1;SDS_P2;PMS_P1;PMS_P2;Temp;Humidity;BMP_temperature;BMP_pressure;BME280_temperature;BME280_humidity;BME280_pressure;Samples;Min_cycle;Max_cycle;Signal;HPM_P1;HPM_P2
2023/01/28 00:01:26;;;;;;;13.35;5.38;;;;;;;-0.17;92.71;101954.75;5028258;28;20132;-60
2023/01/28 00:03:53;;;;;;;10.88;5.13;;;;;;;-0.22;92.74;101946.09;5027559;28;20080;-59
2023/01/28 00:06:21;;;;;;;9.43;4.60;;;;;;;-0.26;92.99;101944.34;5029888;28;20424;-57
2023/01/28 00:08:48;;;;;;;12.68;4.60;;;;;;;-0.29;92.50;101950.34;5030686;28;20054;-58
2023/01/28 00:11:15;;;;;;;13.02;4.50;;;;;;;-0.32;92.74;101950.31;5030993;28;20527;-59
2023/01/28 00:13:43;;;;;;;10.38;4.95;;;;;;;-0.29;93.23;101954.66;5025545;28;20153;-60
2023/01/28 00:16:10;;;;;;;10.68;4.43;;;;;;;-0.40;92.76;101946.81;5031266;28;20132;-59
2023/01/28 00:18:37;;;;;;;11.05;5.10;;;;;;;-0.38;93.59;101947.69;5027365;28;20132;-58
2023/01/28 00:21:12;;;;;;;12.57;4.90;;;;;;;-0.44;92.67;101947.66;5033688;28;20080;-59
2023/01/28 00:23:41;;;;;;;5.90;3.55;;;;;;;-0.51;92.87;101949.31;5029939;28;20171;-60
2023/01/28 00:26:11;;;;;;;12.82;5.43;;;;;;;-0.51;92.92;101957.06;5030665;28;20049;-60
2023/01/28 00:28:38;;;;;;;13.80;5.28;;;;;;;-0.63;92.97;101963.84;5032879;28;20147;-60
2023/01/28 00:31:11;;;;;;;11.43;4.85;;;;;;;-0.69;92.88;101967.28;5036270;28;20152;-61
2023/01/28 00:33:38;;;;;;;11.75;4.90;;;;;;;-0.74;92.78;101968.94;5015453;28;20405;-54
2023/01/28 00:36:05;;;;;;;12.75;4.80;;;;;;;-0.81;92.82;101969.72;5031522;28;20049;-60
2023/01/28 00:38:33;;;;;;;10.77;5.30;;;;;;;-0.89;92.80;101967.09;5022406;28;20053;-59
2023/01/28 00:41:09;;;;;;;10.95;4.80;;;;;;;-0.90;93.47;101959.31;5034331;28;20458;-57
2023/01/28 00:43:36;;;;;;;9.30;4.20;;;;;;;-0.90;94.06;101964.47;5005406;28;20144;-58
2023/01/28 00:46:06;;;;;;;14.15;4.72;;;;;;;-0.91;94.19;101961.03;5027004;28;20053;-59
2023/01/28 00:48:34;;;;;;;14.18;4.85;;;;;;;-0.88;94.14;101962.78;5023747;28;20152;-61
2023/01/28 00:51:01;;;;;;;8.18;4.60;;;;;;;-0.85;94.57;101973.16;5035699;28;20079;-61
2023/01/28 00:53:30;;;;;;;9.82;4.50;;;;;;;-0.80;94.45;101971.50;5026602;28;20125;-59
2023/01/28 00:55:58;;;;;;;14.50;4.65;;;;;;;-0.79;93.81;101973.22;5030716;28;20049;-60
2023/01/28 00:58:25;;;;;;;11.45;3.95;;;;;;;-0.76;94.26;101978.44;5026425;28;20107;-60
2023/01/28 01:00:52;;;;;;;10.57;4.38;;;;;;;-0.77;94.25;101974.97;5036583;28;20579;-57
2023/01/28 01:03:19;;;;;;;11.77;3.80;;;;;;;-0.75;93.97;101981.88;5029504;28;20525;-57
2023/01/28 01:05:46;;;;;;;12.50;4.13;;;;;;;-0.73;93.41;101977.56;5026977;28;20510;-59
2023/01/28 01:08:14;;;;;;;10.77;4.55;;;;;;;-0.79;93.35;101975.81;5030313;28;20049;-61
2023/01/28 01:10:41;;;;;;;9.73;4.28;;;;;;;-0.84;93.61;101978.34;5028910;28;20049;-55
2023/01/28 01:13:09;;;;;;;9.95;4.50;;;;;;;-0.82;93.51;101978.34;5027569;28;20602;-57
2023/01/28 01:15:36;;;;;;;9.35;4.30;;;;;;;-0.86;93.33;101974.00;5030036;28;20067;-61
2023/01/28 01:18:03;;;;;;;10.02;3.40;;;;;;;-0.87;93.45;101975.72;5032043;28;20060;-59
2023/01/28 01:20:32;;;;;;;9.65;4.03;;;;;;;-0.93;93.72;101975.66;5024737;28;20137;-57
2023/01/28 01:22:59;;;;;;;8.13;3.88;;;;;;;-0.96;93.36;101977.34;5029934;28;20563;-59
2023/01/28 01:25:26;;;;;;;7.57;4.13;;;;;;;-0.96;93.66;101979.94;5030207;28;20057;-59
2023/01/28 01:27:53;;;;;;;11.13;4.70;;;;;;;-0.98;93.36;101986.81;5030140;28;20065;-60
2023/01/28 01:30:21;;;;;;;13.40;4.32;;;;;;;-1.00;93.74;101980.75;5024155;28;20535;-59
2023/01/28 01:32:48;;;;;;;10.70;4.63;;;;;;;-1.02;93.63;101978.16;5029372;28;20069;-60
2023/01/28 01:35:15;;;;;;;8.10;3.67;;;;;;;-1.02;93.82;101983.34;5012718;28;20084;-59
2023/01/28 01:37:43;;;;;;;7.32;3.63;;;;;;;-0.95;94.14;101977.34;5036139;28;20072;-61
2023/01/28 01:40:11;;;;;;;9.20;3.70;;;;;;;-0.88;93.68;101973.13;5026578;28;20049;-59
2023/01/28 01:42:38;;;;;;;11.23;4.15;;;;;;;-0.89;93.65;101974.84;5031999;28;20191;-60
2023/01/28 01:45:13;;;;;;;9.13;4.22;;;;;;;-0.88;93.59;101975.72;5031676;28;20065;-58
2023/01/28 01:47:55;;;;;;;8.02;3.53;;;;;;;-0.84;93.51;101977.47;5024080;28;20140;-61
2023/01/28 01:50:29;;;;;;;12.27;4.25;;;;;;;-0.89;93.14;101985.19;5003589;28;20055;-60
2023/01/28 01:53:04;;;;;;;8.80;4.03;;;;;;;-0.88;92.90;101991.22;5029270;28;20620;-59
2023/01/28 01:55:33;;;;;;;8.73;3.85;;;;;;;-0.90;93.09;101992.91;5031033;28;20042;-59
2023/01/28 01:58:06;;;;;;;7.13;3.28;;;;;;;-0.87;92.77;102000.72;5030487;28;20073;-59
2023/01/28 02:00:34;;;;;;;7.95;3.17;;;;;;;-0.82;93.31;101997.31;5014208;28;20092;-59
2023/01/28 02:03:01;;;;;;;9.10;3.55;;;;;;;-0.74;93.04;101992.22;5035698;28;20048;-55
2023/01/28 02:05:28;;;;;;;8.00;3.25;;;;;;;-0.75;92.59;101987.91;5032703;28;20085;-59
2023/01/28 02:10:44;;;;;;;7.43;3.15;;;;;;;-0.66;92.56;101990.56;5031279;28;20083;-59
2023/01/28 02:13:11;;;;;;;6.50;3.88;;;;;;;-0.66;92.43;101992.31;5014343;28;20140;-61
2023/01/28 02:15:38;;;;;;;8.27;3.85;;;;;;;-0.70;92.03;101988.81;5081917;22;20071;-61
2023/01/28 02:18:06;;;;;;;8.25;3.97;;;;;;;-0.67;92.27;101985.41;5091146;28;20062;-60
2023/01/28 02:21:10;;;;;;;6.82;3.20;;;;;;;-0.67;92.45;101978.50;5090697;28;20077;-62
2023/01/28 02:23:45;;;;;;;7.65;3.58;;;;;;;-0.61;92.52;101983.72;5081548;28;20047;-61
2023/01/28 02:26:30;;;;;;;8.10;3.08;;;;;;;-0.55;91.93;101990.66;5089655;28;20047;-62
2023/01/28 02:29:08;;;;;;;10.48;3.92;;;;;;;-0.49;92.02;101985.56;5089206;28;20044;-61
2023/01/28 02:31:43;;;;;;;7.57;3.55;;;;;;;-0.48;92.03;101991.59;5085231;28;20044;-63
2023/01/28 02:34:39;;;;;;;5.68;3.55;;;;;;;-0.45;91.64;101989.91;5088275;28;20062;-64
2023/01/28 02:37:16;;;;;;;5.88;3.05;;;;;;;-0.42;91.68;101989.91;5089050;28;20530;-62
2023/01/28 02:39:50;;;;;;;7.20;3.42;;;;;;;-0.40;91.30;101989.94;5088900;28;20147;-62
2023/01/28 02:42:22;;;;;;;6.38;3.13;;;;;;;-0.38;91.33;101993.41;5086494;28;20144;-60
2023/01/28 02:44:50;;;;;;;8.02;3.03;;;;;;;-0.35;91.43;102001.19;5090074;28;20048;-60
2023/01/28 02:50:15;;;;;;;8.18;3.22;;;;;;;-0.42;90.89;102002.00;5090174;28;20407;-61
2023/01/28 02:56:28;;;;;;;9.90;3.47;;;;;;;-0.36;90.59;101989.09;5084076;28;20459;-62
2023/01/28 02:59:29;;;;;;;7.38;3.47;;;;;;;-0.43;90.86;101993.38;5088865;28;20063;-61
2023/01/28 03:01:57;;;;;;;6.07;3.30;;;;;;;-0.45;90.79;101995.09;5089033;28;20131;-62
2023/01/28 03:05:03;;;;;;;7.88;3.60;;;;;;;-0.42;90.88;101991.63;5088442;28;20139;-61
2023/01/28 03:07:31;;;;;;;8.20;3.10;;;;;;;-0.44;90.59;101990.78;5088380;28;20086;-62
2023/01/28 03:10:03;;;;;;;8.27;3.35;;;;;;;-0.42;91.21;101996.81;5088488;28;20147;-62
2023/01/28 03:38:24;;;;;;;5.88;2.80;;;;;;;-0.30;90.61;101999.50;5087180;28;20414;-60
2023/01/28 03:40:54;;;;;;;5.15;2.67;;;;;;;-0.30;90.77;101992.59;5084554;28;20052;-62
2023/01/28 03:43:22;;;;;;;7.82;3.08;;;;;;;-0.25;90.60;101997.81;5089881;28;20571;-63
2023/01/28 03:45:52;;;;;;;7.80;2.97;;;;;;;-0.21;91.08;101997.00;5090163;28;20146;-60
2023/01/28 03:48:22;;;;;;;10.38;2.80;;;;;;;-0.19;90.68;101992.69;5088451;28;20127;-62
2023/01/28 03:50:50;;;;;;;4.03;2.70;;;;;;;-0.18;90.90;101994.44;5089821;28;20102;-63
2023/01/28 03:53:18;;;;;;;4.97;2.35;;;;;;;-0.19;90.87;102000.44;5086603;28;20060;-60
2023/01/28 03:55:47;;;;;;;5.75;2.70;;;;;;;-0.15;90.52;101998.75;5082816;28;20083;-67
2023/01/28 03:58:15;;;;;;;4.82;2.60;;;;;;;-0.13;90.84;101994.47;5088442;28;20076;-62
2023/01/28 04:00:42;;;;;;;6.25;2.47;;;;;;;-0.10;90.61;101997.06;5088084;28;20048;-61
2023/01/28 04:03:16;;;;;;;7.38;2.63;;;;;;;-0.08;90.20;101993.63;5089097;28;20094;-60
2023/01/28 04:06:05;;;;;;;4.88;2.45;;;;;;;-0.07;90.18;101990.19;5088598;28;20059;-63
2023/01/28 04:08:32;;;;;;;6.80;2.75;;;;;;;-0.07;90.15;101990.19;5089681;28;20058;-64
2023/01/28 04:11:14;;;;;;;8.15;2.58;;;;;;;-0.07;90.63;101991.91;5086945;28;20043;-60
2023/01/28 04:13:41;;;;;;;5.75;2.80;;;;;;;-0.04;90.48;101989.34;5084978;28;20051;-63
2023/01/28 04:16:13;;;;;;;4.18;2.35;;;;;;;-0.03;89.91;101991.94;5084194;28;20054;-64
2023/01/28 04:18:41;;;;;;;5.35;2.40;;;;;;;-0.02;90.12;101998.84;5087768;28;20130;-61
2023/01/28 04:21:08;;;;;;;5.28;2.10;;;;;;;0.01;90.36;101992.84;5089411;28;20135;-62
2023/01/28 04:23:36;;;;;;;4.63;2.38;;;;;;;0.01;90.33;101999.72;5087954;28;20044;-61
2023/01/28 04:26:03;;;;;;;8.73;3.03;;;;;;;0.02;89.57;101996.28;5088539;28;20472;-61
2023/01/28 04:28:30;;;;;;;5.80;2.58;;;;;;;-0.01;89.63;101995.38;5087727;28;20054;-60
2023/01/28 04:30:57;;;;;;;4.43;2.17;;;;;;;0.01;89.90;101995.41;5088756;28;20050;-63
2023/01/28 04:33:25;;;;;;;4.82;2.53;;;;;;;0.05;90.05;101997.19;5088693;28;20075;-61
2023/01/28 04:35:53;;;;;;;5.93;2.92;;;;;;;0.07;89.55;101995.44;5085966;28;20131;-61
2023/01/28 04:38:20;;;;;;;5.85;2.75;;;;;;;0.06;89.73;101998.91;5088158;28;20131;-63
2023/01/28 04:40:51;;;;;;;6.20;2.35;;;;;;;0.06;89.42;101996.31;5089444;28;20067;-60
2023/01/28 04:43:19;;;;;;;3.85;2.40;;;;;;;0.09;89.12;101992.84;5080907;28;20123;-62
2023/01/28 04:45:47;;;;;;;8.95;2.75;;;;;;;0.10;89.38;101994.63;5087815;28;20084;-61
2023/01/28 04:48:15;;;;;;;7.20;2.95;;;;;;;0.09;88.70;101998.03;5091097;28;20151;-62
2023/01/28 04:50:43;;;;;;;4.72;2.28;;;;;;;0.13;88.74;101989.44;5088347;28;20052;-61
2023/01/28 04:53:11;;;;;;;6.57;3.45;;;;;;;0.12;88.79;101992.88;5088211;28;20464;-60
2023/01/28 04:55:38;;;;;;;8.35;3.20;;;;;;;0.15;88.48;101991.19;5088536;28;20048;-63
2023/01/28 04:58:05;;;;;;;8.13;3.65;;;;;;;0.14;88.51;101981.69;5088826;28;20135;-61
2023/01/28 05:00:32;;;;;;;6.97;3.08;;;;;;;0.15;87.89;101987.72;5089009;28;20442;-62
2023/01/28 05:02:59;;;;;;;6.90;3.50;;;;;;;0.20;87.96;101997.25;5087575;28;20058;-59
2023/01/28 05:05:26;;;;;;;7.70;3.22;;;;;;;0.21;88.19;101988.63;5085426;28;20139;-63
2023/01/28 05:07:54;;;;;;;8.38;3.40;;;;;;;0.22;87.86;101995.53;5087751;28;20143;-61
2023/01/28 05:10:22;;;;;;;11.05;4.20;;;;;;;0.24;88.30;101998.16;5088177;28;20272;-60
2023/01/28 05:12:49;;;;;;;6.75;3.58;;;;;;;0.22;86.64;102003.28;5089275;28;20131;-62
2023/01/28 05:15:17;;;;;;;6.68;2.80;;;;;;;0.19;86.07;102005.03;5086396;28;20126;-63
2023/01/28 05:17:45;;;;;;;7.07;3.15;;;;;;;0.22;86.83;102007.63;5085187;28;20060;-60
2023/01/28 05:20:13;;;;;;;5.47;2.50;;;;;;;0.25;87.06;102012.81;5089074;28;20051;-60
2023/01/28 05:22:41;;;;;;;4.47;2.45;;;;;;;0.29;87.29;102017.16;5088477;28;20139;-61
2023/01/28 05:25:09;;;;;;;6.60;2.50;;;;;;;0.32;87.19;102019.78;5088772;28;20090;-61
2023/01/28 05:27:36;;;;;;;3.63;2.22;;;;;;;0.28;86.74;102023.22;5088130;28;20087;-60
2023/01/28 05:30:05;;;;;;;4.53;2.20;;;;;;;0.26;86.63;102022.31;5092509;28;20466;-61
2023/01/28 05:32:32;;;;;;;4.68;2.70;;;;;;;0.32;87.29;102032.72;5090770;28;20123;-61
2023/01/28 05:34:59;;;;;;;6.20;2.92;;;;;;;0.35;87.15;102017.19;5092368;28;20098;-62
2023/01/28 05:37:27;;;;;;;6.05;2.65;;;;;;;0.40;87.26;102017.22;5092063;28;20139;-63
2023/01/28 05:39:54;;;;;;;5.13;2.45;;;;;;;0.41;87.51;102016.38;5092288;28;20047;-59
2023/01/28 05:42:21;;;;;;;5.70;3.08;;;;;;;0.36;86.64;102018.94;5090434;28;20052;-62
2023/01/28 05:44:48;;;;;;;6.43;3.40;;;;;;;0.37;87.02;102015.47;5091996;28;20503;-63
2023/01/28 05:47:15;;;;;;;7.10;3.08;;;;;;;0.36;86.77;102007.69;5091427;28;20604;-61
2023/01/28 05:49:42;;;;;;;7.13;3.72;;;;;;;0.39;87.11;102011.16;5091261;28;20075;-62
2023/01/28 05:52:10;;;;;;;11.25;4.70;;;;;;;0.41;87.08;102016.38;5091575;28;20048;-60
2023/01/28 05:54:37;;;;;;;8.68;4.30;;;;;;;0.43;87.13;102022.41;5092379;28;20054;-61
2023/01/28 05:57:04;;;;;;;5.97;3.80;;;;;;;0.45;87.03;102020.69;5092006;28;20627;-62
2023/01/28 05:59:31;;;;;;;8.48;5.03;;;;;;;0.46;86.91;102017.25;5090584;28;20140;-61
2023/01/28 06:01:58;;;;;;;10.35;5.88;;;;;;;0.46;86.84;102017.25;5087585;28;20136;-61
2023/01/28 06:04:26;;;;;;;12.00;6.63;;;;;;;0.43;86.43;102018.09;5083580;28;20056;-61
2023/01/28 06:06:53;;;;;;;10.93;6.93;;;;;;;0.46;87.21;102017.25;5091471;28;20575;-62
2023/01/28 06:09:20;;;;;;;10.75;7.13;;;;;;;0.48;87.01;102010.34;5095198;28;20059;-63
2023/01/28 06:11:49;;;;;;;13.38;7.47;;;;;;;0.50;86.97;102021.59;5091920;28;20074;-62
2023/01/28 06:14:16;;;;;;;13.07;7.47;;;;;;;0.50;86.55;102024.19;5097274;28;20507;-62
2023/01/28 06:16:43;;;;;;;11.70;6.88;;;;;;;0.52;86.71;102017.28;5085292;28;20056;-61
2023/01/28 06:19:10;;;;;;;9.98;6.80;;;;;;;0.55;86.75;102022.50;5090444;28;20143;-63
2023/01/28 06:21:37;;;;;;;13.45;7.25;;;;;;;0.57;86.51;102031.13;5093005;28;20078;-61
2023/01/28 06:24:05;;;;;;;13.40;7.28;;;;;;;0.59;86.92;102025.97;5091776;28;20056;-61
2023/01/28 06:26:32;;;;;;;10.32;6.70;;;;;;;0.60;86.96;102025.09;5091145;28;20052;-64
2023/01/28 06:28:59;;;;;;;11.73;7.07;;;;;;;0.53;85.58;102034.56;5107807;28;20135;-61
2023/01/28 06:31:26;;;;;;;10.52;6.60;;;;;;;0.52;85.63;102021.59;5090676;28;20072;-60
2023/01/28 06:33:54;;;;;;;12.77;8.13;;;;;;;0.54;86.38;102028.53;5089934;28;20143;-61
2023/01/28 06:36:21;;;;;;;11.27;7.80;;;;;;;0.58;86.37;102032.84;5088971;28;20078;-61
2023/01/28 06:38:48;;;;;;;14.70;7.82;;;;;;;0.58;86.38;102030.25;5091271;28;20469;-61
2023/01/28 06:41:15;;;;;;;14.20;6.35;;;;;;;0.60;86.32;102032.88;5091317;28;20516;-62
2023/01/28 06:43:42;;;;;;;11.50;6.45;;;;;;;0.60;86.28;102035.47;5073256;28;20056;-62
2023/01/28 06:46:10;;;;;;;10.93;6.25;;;;;;;0.59;86.09;102024.25;5091592;28;20094;-60
2023/01/28 06:48:37;;;;;;;10.88;6.60;;;;;;;0.59;85.98;102033.75;5092141;28;20143;-61
2023/01/28 06:51:04;;;;;;;11.65;6.90;;;;;;;0.57;85.57;102035.44;5091005;28;20134;-60
2023/01/28 06:53:31;;;;;;;9.95;6.05;;;;;;;0.49;84.54;102037.97;5090023;28;20044;-63
2023/01/28 06:55:59;;;;;;;10.20;6.93;;;;;;;0.50;84.88;102037.16;5090742;28;20139;-66
2023/01/28 06:58:26;;;;;;;11.02;6.70;;;;;;;0.50;85.18;102027.66;5090378;28;20051;-61
2023/01/28 07:00:53;;;;;;;10.88;7.25;;;;;;;0.54;85.57;102031.13;5090649;28;20131;-61
2023/01/28 07:03:20;;;;;;;16.67;7.50;;;;;;;0.60;86.08;102040.66;5089661;28;20044;-62
2023/01/28 07:05:47;;;;;;;12.13;6.95;;;;;;;0.60;85.69;102040.66;5089095;28;20075;-63
2023/01/28 07:08:14;;;;;;;13.57;7.78;;;;;;;0.62;86.07;102039.78;5089021;28;20080;-61
2023/01/28 07:10:42;;;;;;;12.25;8.25;;;;;;;0.60;84.98;102038.91;5090324;28;20091;-61
2023/01/28 07:13:10;;;;;;;12.35;7.80;;;;;;;0.61;85.09;102042.38;5096021;28;20048;-61
2023/01/28 07:15:37;;;;;;;19.08;7.85;;;;;;;0.63;85.34;102043.22;5088084;28;20044;-62
2023/01/28 07:18:04;;;;;;;14.25;8.15;;;;;;;0.63;85.53;102049.31;5089019;28;20160;-61
2023/01/28 07:20:31;;;;;;;15.65;9.05;;;;;;;0.63;85.28;102054.50;5089198;28;20143;-61
2023/01/28 07:22:58;;;;;;;15.48;8.77;;;;;;;0.66;85.38;102051.91;5090260;28;20147;-61
2023/01/28 07:25:25;;;;;;;15.30;8.88;;;;;;;0.59;82.90;102050.16;5088665;28;20051;-61
2023/01/28 07:27:53;;;;;;;13.60;8.55;;;;;;;0.58;82.86;102044.94;5089420;28;20147;-60
2023/01/28 07:30:20;;;;;;;19.80;8.75;;;;;;;0.59;82.93;102050.16;5089629;28;20052;-61
2023/01/28 07:32:54;;;;;;;14.30;8.52;;;;;;;0.61;83.73;102052.75;5089240;28;20501;-62
2023/01/28 07:35:22;;;;;;;18.63;8.50;;;;;;;0.69;84.85;102051.06;5088633;28;20079;-61
2023/01/28 07:37:57;;;;;;;14.55;9.07;;;;;;;0.73;84.79;102043.31;5089448;28;20048;-61
2023/01/28 07:40:24;;;;;;;13.07;8.60;;;;;;;0.76;85.05;102039.84;5091530;28;20134;-58
2023/01/28 07:42:54;;;;;;;12.60;8.48;;;;;;;0.75;84.61;102043.28;5089755;28;20056;-60
2023/01/28 07:45:22;;;;;;;11.05;7.18;;;;;;;0.77;84.75;102046.78;5088980;28;20076;-59
2023/01/28 07:47:57;;;;;;;14.85;8.82;;;;;;;0.81;84.37;102052.81;5087556;28;20079;-62
2023/01/28 07:50:24;;;;;;;12.13;7.78;;;;;;;0.78;84.45;102050.22;5088262;28;20408;-62
2023/01/28 07:52:52;;;;;;;12.32;7.93;;;;;;;0.75;84.43;102051.06;5089348;28;20139;-62
2023/01/28 07:55:19;;;;;;;15.48;7.60;;;;;;;0.78;84.57;102053.69;5088754;28;20056;-62
2023/01/28 07:58:05;;;;;;;11.40;6.82;;;;;;;0.81;84.99;102055.41;5088229;28;20469;-61
2023/01/28 08:00:34;;;;;;;9.55;5.88;;;;;;;0.82;84.83;102052.84;5078414;28;20135;-62
2023/01/28 08:03:04;;;;;;;10.90;6.25;;;;;;;0.82;84.43;102049.38;5089240;28;20529;-61
2023/01/28 08:05:43;;;;;;;10.68;5.95;;;;;;;0.85;84.91;102057.16;5082250;28;20052;-61
2023/01/28 08:08:11;;;;;;;10.45;6.25;;;;;;;0.87;85.04;102053.72;5088252;28;20056;-61
2023/01/28 08:10:38;;;;;;;8.38;5.55;;;;;;;0.91;85.37;102062.38;5088721;28;20044;-61
2023/01/28 08:13:06;;;;;;;10.57;5.25;;;;;;;0.90;84.55;102063.22;5087795;28;20134;-60
2023/01/28 08:15:33;;;;;;;9.35;5.25;;;;;;;0.94;84.55;102072.75;5106888;22;20155;-60
2023/01/28 08:18:02;;;;;;;7.95;5.18;;;;;;;0.94;84.80;102070.16;5067398;28;20056;-59
2023/01/28 08:20:30;;;;;;;9.32;5.50;;;;;;;0.90;83.74;102069.31;5064788;28;20054;-59
2023/01/28 08:23:25;;;;;;;8.52;5.35;;;;;;;0.95;84.13;102082.28;5067820;28;20139;-60
2023/01/28 08:25:53;;;;;;;6.93;5.03;;;;;;;1.01;84.33;102069.34;5061675;28;20098;-57
2023/01/28 08:28:20;;;;;;;9.75;5.00;;;;;;;1.07;84.60;102068.47;5067672;28;20088;-59
2023/01/28 08:30:47;;;;;;;8.48;4.35;;;;;;;1.08;83.98;102065.00;5068003;28;20052;-59
2023/01/28 08:33:16;;;;;;;7.43;5.00;;;;;;;1.08;83.97;102070.22;5067011;28;20139;-59
2023/01/28 08:35:43;;;;;;;6.72;4.40;;;;;;;1.08;83.83;102080.56;5068469;28;20135;-60
2023/01/28 08:38:12;;;;;;;8.50;5.13;;;;;;;1.08;83.03;102090.94;5066419;28;20100;-58
2023/01/28 08:40:39;;;;;;;6.90;4.75;;;;;;;1.07;83.13;102097.88;5068529;28;20062;-57
2023/01/28 08:43:06;;;;;;;7.25;4.65;;;;;;;1.05;81.78;102094.41;5067466;28;20079;-54
2023/01/28 08:45:33;;;;;;;8.20;4.20;;;;;;;1.09;82.80;102090.97;5067496;28;20044;-57
2023/01/28 08:48:03;;;;;;;6.90;3.95;;;;;;;1.11;82.75;102096.16;5058127;28;20439;-58
2023/01/28 08:50:34;;;;;;;7.28;4.57;;;;;;;1.16;82.80;102084.06;5060191;28;20048;-58
2023/01/28 08:53:07;;;;;;;5.20;3.42;;;;;;;1.19;83.13;102084.09;5067628;28;20547;-59
2023/01/28 08:55:34;;;;;;;5.70;3.03;;;;;;;1.14;80.61;102102.22;5060852;28;20041;-60
2023/01/28 08:58:06;;;;;;;5.65;3.60;;;;;;;1.20;81.56;102107.44;5065677;28;20139;-57
2023/01/28 09:00:34;;;;;;;6.93;2.75;;;;;;;1.16;79.49;102099.63;5062352;28;20151;-59
2023/01/28 09:03:01;;;;;;;4.22;2.60;;;;;;;1.13;78.34;102095.31;5071759;28;20051;-55
2023/01/28 09:05:33;;;;;;;4.93;2.35;;;;;;;1.15;79.47;102108.28;5070939;28;20147;-59
2023/01/28 09:08:09;;;;;;;4.35;2.05;;;;;;;1.17;79.03;102106.53;5071528;28;20139;-58
2023/01/28 09:10:36;;;;;;;4.22;2.05;;;;;;;1.22;80.20;102107.47;5069139;28;20079;-59
2023/01/28 09:13:08;;;;;;;4.50;2.22;;;;;;;1.24;80.30;102114.38;5071883;28;20139;-59
2023/01/28 09:15:35;;;;;;;7.90;2.75;;;;;;;1.24;79.99;102113.50;5085555;28;20055;-59
2023/01/28 09:18:03;;;;;;;5.53;2.20;;;;;;;1.25;80.00;102115.22;5070505;28;20052;-59
2023/01/28 09:20:31;;;;;;;5.32;2.03;;;;;;;1.25;79.92;102123.88;5067871;28;20128;-60
2023/01/28 09:23:00;;;;;;;4.50;2.22;;;;;;;1.33;80.68;102126.50;5072016;28;20472;-59
2023/01/28 09:25:27;;;;;;;4.20;1.95;;;;;;;1.42;81.32;102123.06;5070277;28;20058;-58
2023/01/28 09:27:54;;;;;;;2.95;1.45;;;;;;;1.42;80.21;102125.66;5071124;28;20059;-60
2023/01/28 09:30:21;;;;;;;5.75;1.65;;;;;;;1.38;79.53;102129.97;5071272;28;20083;-59
2023/01/28 09:32:50;;;;;;;2.53;1.40;;;;;;;1.36;77.74;102128.25;5070469;28;20052;-60
2023/01/28 09:35:18;;;;;;;1.73;1.10;;;;;;;1.41;79.09;102134.31;5068460;28;20067;-60
2023/01/28 09:37:46;;;;;;;2.67;1.38;;;;;;;1.38;73.93;102139.50;5070477;28;20082;-59
2023/01/28 09:40:19;;;;;;;3.90;1.27;;;;;;;1.41;78.12;102129.13;5070766;28;20592;-59
2023/01/28 09:42:58;;;;;;;2.45;1.20;;;;;;;1.44;78.68;102132.59;5064984;28;20063;-59
2023/01/28 09:45:41;;;;;;;3.88;1.40;;;;;;;1.50;78.72;102134.34;5070310;28;20123;-59
2023/01/28 09:48:14;;;;;;;3.70;1.25;;;;;;;1.58;80.01;102129.19;5069926;28;20080;-59
2023/01/28 09:50:45;;;;;;;2.85;1.50;;;;;;;1.66;80.78;102135.22;5066866;28;20143;-58
2023/01/28 09:53:12;;;;;;;2.78;1.20;;;;;;;1.64;79.73;102132.66;5070140;28;20417;-59
2023/01/28 09:55:44;;;;;;;1.98;1.10;;;;;;;1.67;80.21;102135.25;5071013;28;20461;-59
2023/01/28 10:01:26;;;;;;;5.70;1.75;;;;;;;1.63;76.77;102138.69;5072469;28;20477;-59
2023/01/28 10:04:22;;;;;;;3.95;1.48;;;;;;;1.63;78.10;102146.50;5071077;28;20182;-58
2023/01/28 10:07:21;;;;;;;2.88;1.42;;;;;;;1.70;79.74;102140.44;5070721;28;20131;-59
2023/01/28 10:09:51;;;;;;;3.22;1.38;;;;;;;1.70;79.75;102137.84;5067251;28;20163;-58
2023/01/28 10:12:31;;;;;;;1.55;1.10;;;;;;;1.69;79.51;102135.25;5069189;28;20144;-59
2023/01/28 10:15:10;;;;;;;3.20;1.10;;;;;;;1.73;80.25;102127.47;5068539;28;20415;-54
2023/01/28 10:17:44;;;;;;;3.47;1.10;;;;;;;1.80;80.07;102125.72;5069825;28;20049;-56
2023/01/28 10:20:11;;;;;;;2.38;1.20;;;;;;;1.80;79.98;102128.31;5067221;28;20055;-57
2023/01/28 10:22:42;;;;;;;3.40;0.70;;;;;;;1.86;80.84;102127.50;5065733;28;20054;-59
2023/01/28 10:25:21;;;;;;;2.40;0.85;;;;;;;1.78;76.20;102133.53;5069323;28;20128;-59
2023/01/28 10:27:49;;;;;;;2.08;1.05;;;;;;;1.83;78.59;102130.06;5069905;28;20059;-58
2023/01/28 10:30:27;;;;;;;3.17;1.13;;;;;;;1.80;76.07;102125.72;5069754;28;20148;-58
2023/01/28 10:33:15;;;;;;;5.72;1.00;;;;;;;1.87;78.31;102124.88;5070051;28;20056;-58
2023/01/28 10:35:43;;;;;;;1.77;0.80;;;;;;;1.96;79.14;102124.03;5069273;28;20106;-58
2023/01/28 10:38:13;;;;;;;2.25;1.20;;;;;;;1.97;78.23;102111.03;5069335;28;20069;-59
2023/01/28 10:40:41;;;;;;;2.72;1.02;;;;;;;1.99;78.25;102114.50;5070590;28;20127;-58
2023/01/28 10:43:09;;;;;;;3.35;1.60;;;;;;;2.00;78.74;102116.25;5067052;28;20140;-60
2023/01/28 10:45:58;;;;;;;2.28;0.90;;;;;;;1.92;72.51;102117.97;5067897;28;20398;-58
2023/01/28 10:48:29;;;;;;;1.20;0.70;;;;;;;1.77;68.07;102121.41;5065401;28;20469;-59
2023/01/28 10:51:00;;;;;;;1.90;0.93;;;;;;;1.75;72.95;102117.94;5069095;28;20052;-58
2023/01/28 10:53:38;;;;;;;2.42;0.70;;;;;;;1.65;68.71;102125.72;5066220;28;20045;-57
2023/01/28 10:56:08;;;;;;;2.00;1.00;;;;;;;1.64;69.59;102117.06;5069061;28;20045;-57
2023/01/28 10:58:47;;;;;;;1.90;0.63;;;;;;;1.63;69.13;102120.53;5068933;28;20131;-59
2023/01/28 11:01:14;;;;;;;2.70;0.80;;;;;;;1.65;71.18;102115.34;5068056;28;20147;-58
2023/01/28 11:03:53;;;;;;;2.53;0.68;;;;;;;1.74;74.22;102118.81;5071267;28;20048;-58
2023/01/28 11:06:25;;;;;;;3.60;0.73;;;;;;;1.78;73.46;102117.09;5068580;28;20139;-58
2023/01/28 11:08:53;;;;;;;3.60;0.80;;;;;;;1.81;74.05;102116.25;5068469;28;20128;-58
2023/01/28 11:11:25;;;;;;;2.28;0.80;;;;;;;1.91;75.75;102112.78;5067671;28;20084;-58
2023/01/28 11:13:54;;;;;;;1.83;0.70;;;;;;;1.92;74.68;102110.16;5068077;28;20103;-58
2023/01/28 11:16:21;;;;;;;1.33;0.68;;;;;;;1.97;75.84;102107.56;5068440;28;20505;-58
2023/01/28 11:18:53;;;;;;;1.10;0.68;;;;;;;2.03;77.32;102113.66;5068946;28;20707;-59
2023/01/28 11:21:24;;;;;;;1.80;0.85;;;;;;;2.11;77.90;102115.38;5060868;28;20537;-59
2023/01/28 11:24:01;;;;;;;5.82;1.30;;;;;;;2.15;77.88;102110.16;5067260;28;20163;-59
2023/01/28 11:26:31;;;;;;;2.47;1.00;;;;;;;2.19;73.39;102103.25;5066768;28;20059;-59
2023/01/28 11:28:59;;;;;;;1.42;0.80;;;;;;;2.17;71.55;102110.19;5065763;28;20476;-59
2023/01/28 11:31:26;;;;;;;3.47;0.80;;;;;;;2.17;74.16;102103.25;5067677;28;20044;-59
2023/01/28 11:34:01;;;;;;;2.58;1.05;;;;;;;2.18;75.73;102098.94;5067045;28;20115;-58
2023/01/28 11:36:32;;;;;;;2.28;1.05;;;;;;;2.21;77.18;102106.72;5066765;28;20143;-58
2023/01/28 11:39:18;;;;;;;2.03;0.90;;;;;;;2.24;77.66;102101.50;5066815;28;20508;-59
2023/01/28 11:41:46;;;;;;;2.78;1.05;;;;;;;2.23;76.86;102092.00;5065937;28;20054;-60
2023/01/28 11:44:26;;;;;;;2.15;1.10;;;;;;;2.18;76.32;102091.13;5068785;28;20163;-60
2023/01/28 11:47:08;;;;;;;2.83;1.08;;;;;;;2.14;75.94;102084.19;5063733;28;20416;-59
2023/01/28 11:49:39;;;;;;;5.38;1.33;;;;;;;2.20;77.62;102085.06;5065037;28;20561;-60
2023/01/28 11:52:16;;;;;;;1.63;0.90;;;;;;;2.19;73.40;102090.25;5065521;28;20260;-60
2023/01/28 11:54:55;;;;;;;2.20;0.95;;;;;;;2.20;74.56;102084.19;5064161;28;20059;-59
2023/01/28 11:57:26;;;;;;;4.32;1.50;;;;;;;2.22;76.45;102070.34;5065230;28;20135;-59
2023/01/28 12:00:13;;;;;;;6.57;2.63;;;;;;;2.18;75.59;102068.59;5067119;28;20453;-60
2023/01/28 12:02:51;;;;;;;9.75;2.28;;;;;;;2.24;77.72;102070.31;5064070;28;20053;-59
2023/01/28 12:05:40;;;;;;;2.33;1.30;;;;;;;2.20;72.93;102079.84;5061632;28;20056;-60
2023/01/28 12:08:19;;;;;;;3.20;1.20;;;;;;;2.13;71.67;102077.28;5064566;28;20151;-60
2023/01/28 12:11:00;;;;;;;3.30;1.65;;;;;;;2.06;72.69;102070.34;5064180;28;20560;-60
2023/01/28 12:13:39;;;;;;;2.53;1.52;;;;;;;1.90;68.73;102074.69;5066736;28;20118;-60
2023/01/28 12:16:16;;;;;;;5.93;1.65;;;;;;;1.77;69.10;102072.09;5061850;28;20079;-60
2023/01/28 12:18:46;;;;;;;5.70;1.50;;;;;;;1.68;69.55;102069.50;5064263;28;20052;-60
2023/01/28 12:21:39;;;;;;;4.55;1.58;;;;;;;1.63;69.66;102065.16;5067638;28;20051;-60
2023/01/28 12:24:16;;;;;;;5.30;1.88;;;;;;;1.58;69.95;102069.50;5065325;28;20699;-60